Time;durP1;ratioP1;P1;durP2;ratioP2;P2;SDS_P1;SDS_P2;PMS_P1;PMS_P2;Temp;Humidity;BMP_temperature;BMP_pressure;BME280_temperature;BME280_humidity;BME280_pressure;Samples;Min_cycle;Max_cycle;Signal;HPM_P1;HPM_P2
2021/06/18 00:00:52;;;;;;;12.73;11.48;;;28.70;90.10;;;;;;5036506;28;20226;-77
2021/06/18 00:03:17;;;;;;;12.38;11.20;;;28.60;90.10;;;;;;5031103;28;20211;-76
2021/06/18 00:05:43;;;;;;;12.82;11.63;;;28.60;90.10;;;;;;5032988;28;20213;-77
2021/06/18 00:08:09;;;;;;;12.60;11.50;;;28.60;90.30;;;;;;5033813;28;20704;-77
2021/06/18 00:10:35;;;;;;;12.05;10.98;;;28.50;90.30;;;;;;5037793;28;20229;-77
2021/06/18 00:13:01;;;;;;;11.30;10.35;;;28.50;90.30;;;;;;5062881;28;20628;-75
2021/06/18 00:15:26;;;;;;;12.82;11.52;;;28.50;90.30;;;;;;5034597;28;20211;-77
2021/06/18 00:17:52;;;;;;;14.05;11.35;;;28.50;90.30;;;;;;5048540;28;20886;-77
2021/06/18 00:20:19;;;;;;;12.10;11.10;;;28.40;90.30;;;;;;5064317;28;20222;-77
2021/06/18 00:22:45;;;;;;;12.10;11.00;;;28.40;90.40;;;;;;5065597;28;20278;-77
2021/06/18 00:25:12;;;;;;;15.40;10.88;;;28.00;90.80;;;;;;5048182;28;20215;-77
2021/06/18 00:27:37;;;;;;;13.77;12.38;;;28.20;90.90;;;;;;5061754;28;20272;-76
2021/06/18 00:30:06;;;;;;;11.85;10.82;;;28.20;90.80;;;;;;5047247;28;20293;-76
2021/06/18 00:32:31;;;;;;;12.32;11.30;;;28.20;90.70;;;;;;5065569;28;20578;-77
2021/06/18 00:34:57;;;;;;;13.20;12.00;;;28.20;90.80;;;;;;5048612;28;20226;-77
2021/06/18 00:37:23;;;;;;;12.20;11.00;;;28.20;90.80;;;;;;5021173;28;20231;-77
2021/06/18 00:39:48;;;;;;;12.20;11.02;;;28.10;90.80;;;;;;5060946;28;20212;-77
2021/06/18 00:42:14;;;;;;;12.60;11.50;;;28.10;91.00;;;;;;4996730;28;20284;-77
2021/06/18 00:44:40;;;;;;;12.98;11.77;;;28.00;90.80;;;;;;5014810;28;20216;-75
2021/06/18 00:47:13;;;;;;;13.70;12.35;;;28.00;90.80;;;;;;5016641;28;20213;-77
2021/06/18 00:49:39;;;;;;;13.25;11.98;;;28.00;90.90;;;;;;5036000;28;20702;-77
2021/06/18 00:52:05;;;;;;;12.77;11.48;;;27.90;91.00;;;;;;5015716;28;20768;-77
2021/06/18 00:54:31;;;;;;;13.73;12.35;;;27.90;91.00;;;;;;5033306;28;20709;-77
2021/06/18 00:56:59;;;;;;;14.40;11.90;;;27.80;91.00;;;;;;5020215;28;20228;-77
2021/06/18 00:59:25;;;;;;;15.23;12.75;;;27.80;91.00;;;;;;5030027;28;20226;-77
2021/06/18 01:01:51;;;;;;;11.85;10.85;;;27.80;91.00;;;;;;5050440;28;20272;-77
2021/06/18 01:04:19;;;;;;;11.67;10.47;;;27.80;91.10;;;;;;5033561;28;20235;-76
2021/06/18 01:06:52;;;;;;;12.73;11.63;;;27.70;91.00;;;;;;5019488;28;20465;-78
2021/06/18 01:09:21;;;;;;;12.93;11.83;;;27.70;91.10;;;;;;5052835;28;20252;-77
2021/06/18 01:12:07;;;;;;;11.43;10.48;;;27.70;91.10;;;;;;5034112;28;20476;-77
2021/06/18 01:14:41;;;;;;;11.95;10.88;;;27.70;91.10;;;;;;5058696;28;20290;-77
2021/06/18 01:17:24;;;;;;;12.93;11.47;;;27.60;91.20;;;;;;5029786;28;20224;-77
2021/06/18 01:20:12;;;;;;;12.73;11.50;;;27.60;91.20;;;;;;5037184;28;20475;-77
2021/06/18 01:22:41;;;;;;;12.70;11.50;;;27.60;91.30;;;;;;5063242;28;20593;-77
2021/06/18 01:25:21;;;;;;;12.47;11.37;;;27.50;91.30;;;;;;5052899;28;20575;-77
2021/06/18 01:28:10;;;;;;;13.23;11.83;;;27.50;91.30;;;;;;5034601;28;20465;-77
2021/06/18 01:30:36;;;;;;;12.00;10.77;;;27.50;91.40;;;;;;5069833;28;20472;-77
2021/06/18 01:33:14;;;;;;;13.30;12.10;;;27.40;91.40;;;;;;5064929;28;20819;-77
2021/06/18 01:35:52;;;;;;;12.20;11.00;;;27.40;91.40;;;;;;5067321;28;20214;-76
2021/06/18 01:38:21;;;;;;;12.83;11.50;;;27.30;91.40;;;;;;5035934;28;20451;-76
2021/06/18 01:40:50;;;;;;;12.40;11.23;;;27.20;91.50;;;;;;5047330;28;20517;-76
2021/06/18 01:43:18;;;;;;;12.67;11.47;;;27.00;91.80;;;;;;5048879;28;20449;-76
2021/06/18 01:45:46;;;;;;;13.07;11.77;;;27.10;91.80;;;;;;5051960;28;21219;-76
2021/06/18 01:48:13;;;;;;;14.70;11.80;;;27.00;91.90;;;;;;5032556;28;20450;-76
2021/06/18 01:50:40;;;;;;;12.17;11.07;;;27.00;92.00;;;;;;5052408;28;20472;-76
2021/06/18 01:53:09;;;;;;;13.17;11.97;;;26.90;92.00;;;;;;5033809;28;20451;-76
2021/06/18 01:55:37;;;;;;;13.80;12.53;;;27.00;92.00;;;;;;5019090;28;20450;-76
2021/06/18 01:58:05;;;;;;;12.53;11.37;;;27.00;92.00;;;;;;5066457;28;20480;-75
2021/06/18 02:00:34;;;;;;;13.77;12.43;;;26.90;92.10;;;;;;5051305;28;20446;-76
2021/06/18 02:03:07;;;;;;;13.93;12.53;;;26.80;92.30;;;;;;5049207;28;20458;-76
2021/06/18 02:05:35;;;;;;;17.33;12.77;;;26.70;92.60;;;;;;5069293;28;20900;-76
2021/06/18 02:08:02;;;;;;;13.23;12.03;;;26.70;92.70;;;;;;5065997;28;20538;-76
2021/06/18 02:10:28;;;;;;;13.77;12.50;;;26.70;92.70;;;;;;5040831;28;20444;-76
2021/06/18 02:12:56;;;;;;;15.13;13.67;;;26.80;92.50;;;;;;5020038;28;20515;-76
2021/06/18 02:15:23;;;;;;;20.03;12.50;;;26.80;92.40;;;;;;5050270;28;20277;-76
2021/06/18 02:17:49;;;;;;;13.53;12.17;;;26.80;92.30;;;;;;5053405;28;20501;-76
2021/06/18 02:20:16;;;;;;;13.13;12.03;;;26.80;92.30;;;;;;5037563;28;20475;-76
2021/06/18 02:22:42;;;;;;;13.90;12.60;;;26.80;92.20;;;;;;5039490;28;20540;-76
2021/06/18 02:25:10;;;;;;;13.60;12.17;;;26.80;92.30;;;;;;5068230;28;20483;-76
2021/06/18 02:27:39;;;;;;;14.03;12.23;;;26.80;92.40;;;;;;5056709;28;20831;-77
2021/06/18 02:30:06;;;;;;;16.27;13.20;;;26.70;92.40;;;;;;5073240;28;20449;-76
2021/06/18 02:32:34;;;;;;;13.93;12.63;;;26.70;92.50;;;;;;5073844;28;20974;-76
2021/06/18 02:35:01;;;;;;;15.17;13.67;;;26.70;92.50;;;;;;5052317;28;20457;-76
2021/06/18 02:37:26;;;;;;;16.43;14.93;;;26.70;92.60;;;;;;5048642;28;20466;-76
2021/06/18 02:39:52;;;;;;;14.97;13.57;;;26.60;92.60;;;;;;5039025;28;20585;-74
2021/06/18 02:42:18;;;;;;;13.67;12.50;;;26.60;92.60;;;;;;5036846;28;20756;-76
2021/06/18 02:44:44;;;;;;;13.80;12.50;;;26.60;92.70;;;;;;5050360;28;20692;-76
2021/06/18 02:47:36;;;;;;;14.60;13.23;;;26.50;92.80;;;;;;5036778;28;20225;-76
2021/06/18 02:50:29;;;;;;;12.70;11.60;;;26.50;92.70;;;;;;5065585;28;20243;-76
2021/06/18 02:53:01;;;;;;;18.10;12.77;;;26.50;92.70;;;;;;5053303;28;20462;-76
2021/06/18 02:55:36;;;;;;;13.57;11.53;;;26.50;92.80;;;;;;5040455;28;20448;-76
2021/06/18 02:58:36;;;;;;;12.90;11.70;;;26.50;92.80;;;;;;5031932;28;20450;-76
2021/06/18 03:01:04;;;;;;;13.20;11.67;;;26.40;92.90;;;;;;5048083;28;20460;-76
2021/06/18 03:03:38;;;;;;;12.30;11.10;;;26.30;92.80;;;;;;5054462;28;20526;-76
2021/06/18 03:06:04;;;;;;;13.30;11.90;;;26.30;92.90;;;;;;5071022;28;20453;-76
2021/06/18 03:08:36;;;;;;;12.63;11.47;;;26.30;92.90;;;;;;5043882;28;20462;-76
2021/06/18 03:11:04;;;;;;;12.70;11.60;;;26.20;92.80;;;;;;5066611;28;20471;-76
2021/06/18 03:13:40;;;;;;;12.53;11.33;;;26.20;92.90;;;;;;5056041;28;20508;-76
2021/06/18 03:16:09;;;;;;;12.50;11.20;;;26.10;92.80;;;;;;5034009;28;20461;-76
2021/06/18 03:18:36;;;;;;;13.70;12.40;;;25.90;93.20;;;;;;5055286;28;20517;-76
2021/06/18 03:21:04;;;;;;;14.20;12.40;;;25.90;93.40;;;;;;5036476;28;20473;-76
2021/06/18 03:23:32;;;;;;;15.00;12.87;;;25.80;93.70;;;;;;5050299;28;20465;-76
2021/06/18 03:26:02;;;;;;;15.33;12.40;;;25.70;94.30;;;;;;5034820;28;20468;-76
2021/06/18 03:28:29;;;;;;;13.47;12.23;;;25.70;94.20;;;;;;5034766;28;20454;-76
2021/06/18 03:30:56;;;;;;;13.57;12.27;;;25.60;94.40;;;;;;5038336;28;20469;-76
2021/06/18 03:33:23;;;;;;;45.27;13.50;;;25.60;94.90;;;;;;5068963;28;20445;-76
2021/06/18 03:35:50;;;;;;;18.53;13.23;;;25.50;94.80;;;;;;5073759;28;20445;-76
2021/06/18 03:38:17;;;;;;;13.63;12.43;;;25.50;95.40;;;;;;5059077;28;20457;-76
2021/06/18 03:40:43;;;;;;;14.13;12.70;;;25.50;95.10;;;;;;5035861;28;20453;-76
2021/06/18 03:43:09;;;;;;;12.73;11.43;;;25.50;95.40;;;;;;5038356;28;20464;-75
2021/06/18 03:45:41;;;;;;;14.87;12.23;;;25.50;95.20;;;;;;5049543;28;20215;-76
2021/06/18 03:48:12;;;;;;;14.03;12.70;;;25.50;95.20;;;;;;5049395;28;20448;-76
2021/06/18 03:50:38;;;;;;;13.40;11.73;;;25.50;95.70;;;;;;5050534;28;20490;-76
2021/06/18 03:53:04;;;;;;;14.23;12.83;;;25.40;96.00;;;;;;5051039;28;20504;-75
2021/06/18 03:55:30;;;;;;;12.43;11.23;;;25.30;96.20;;;;;;5057501;28;20453;-76
2021/06/18 03:57:58;;;;;;;13.57;11.03;;;25.30;96.50;;;;;;5034709;28;20229;-76
2021/06/18 04:00:24;;;;;;;12.50;11.17;;;25.30;96.50;;;;;;5056221;28;20225;-76
2021/06/18 04:02:51;;;;;;;13.53;12.23;;;25.30;96.40;;;;;;5049778;28;20441;-76
2021/06/18 04:05:21;;;;;;;13.60;12.30;;;25.30;96.60;;;;;;5029084;28;20218;-76
2021/06/18 04:07:50;;;;;;;17.57;12.40;;;25.30;96.40;;;;;;5067139;28;20980;-76
2021/06/18 04:10:17;;;;;;;12.70;11.10;;;25.40;96.00;;;;;;5051412;28;20457;-76
2021/06/18 04:12:46;;;;;;;12.27;10.93;;;25.50;95.80;;;;;;5033111;28;20465;-76
2021/06/18 04:15:13;;;;;;;13.00;11.70;;;25.50;96.10;;;;;;5021011;28;20448;-76
2021/06/18 04:17:40;;;;;;;12.50;11.30;;;25.40;96.50;;;;;;5053693;28;20488;-76
2021/06/18 04:20:07;;;;;;;12.23;11.13;;;25.50;96.10;;;;;;5067414;28;20464;-76
2021/06/18 04:22:34;;;;;;;13.77;12.37;;;25.50;96.00;;;;;;5054026;28;20459;-76
2021/06/18 04:25:00;;;;;;;14.27;12.43;;;25.50;95.90;;;;;;5050700;28;20481;-76
2021/06/18 04:27:26;;;;;;;12.60;11.50;;;25.50;96.10;;;;;;5054161;28;20515;-76
2021/06/18 04:29:52;;;;;;;12.57;11.00;;;25.50;96.20;;;;;;5016531;28;20218;-76
2021/06/18 04:32:19;;;;;;;12.93;11.73;;;25.50;96.10;;;;;;5070035;28;20465;-76
2021/06/18 04:34:46;;;;;;;12.63;11.43;;;25.50;96.10;;;;;;5054282;28;20452;-75
2021/06/18 04:37:11;;;;;;;13.47;12.07;;;25.50;96.10;;;;;;5051431;28;20456;-76
2021/06/18 04:39:37;;;;;;;12.97;11.67;;;25.50;96.10;;;;;;5033803;28;20544;-77
2021/06/18 04:42:04;;;;;;;14.27;12.73;;;25.50;96.20;;;;;;5052147;28;20221;-76
2021/06/18 04:44:33;;;;;;;13.90;12.43;;;25.50;96.30;;;;;;5069462;28;20277;-76
2021/06/18 04:46:59;;;;;;;15.23;12.03;;;25.50;96.60;;;;;;5070296;28;20472;-76
2021/06/18 04:49:25;;;;;;;13.40;12.20;;;25.50;96.60;;;;;;5034778;28;20457;-76
2021/06/18 04:51:53;;;;;;;15.43;12.17;;;25.40;96.70;;;;;;5010110;28;20226;-76
2021/06/18 04:54:21;;;;;;;15.20;11.37;;;25.40;97.10;;;;;;5034377;28;20215;-76
2021/06/18 04:56:47;;;;;;;13.90;12.27;;;25.40;96.90;;;;;;5019293;28;20449;-75
2021/06/18 04:59:13;;;;;;;12.80;11.50;;;25.50;96.80;;;;;;5042569;28;20461;-77
2021/06/18 05:01:39;;;;;;;15.07;13.63;;;25.50;97.30;;;;;;5043418;28;20620;-78
2021/06/18 05:04:05;;;;;;;13.40;11.87;;;25.40;97.80;;;;;;5042493;28;20446;-78
2021/06/18 05:06:31;;;;;;;24.40;12.80;;;25.40;97.30;;;;;;5026456;28;20280;-76
2021/06/18 05:08:57;;;;;;;15.80;12.10;;;25.50;97.30;;;;;;5035963;28;20720;-77
2021/06/18 05:11:23;;;;;;;17.33;11.60;;;25.50;97.30;;;;;;5016348;28;20525;-76
2021/06/18 05:13:50;;;;;;;13.50;12.20;;;25.60;97.10;;;;;;5034760;28;20799;-76
2021/06/18 05:16:16;;;;;;;13.90;12.60;;;25.60;96.90;;;;;;5043573;28;20959;-76
2021/06/18 05:18:42;;;;;;;13.70;12.37;;;25.60;97.30;;;;;;5045787;28;20461;-76
2021/06/18 05:21:08;;;;;;;14.00;12.70;;;25.50;97.70;;;;;;5048722;28;20896;-76
2021/06/18 05:23:34;;;;;;;13.23;12.03;;;25.50;97.90;;;;;;5035253;28;20302;-76
2021/06/18 05:26:00;;;;;;;15.30;12.20;;;25.60;97.80;;;;;;5031931;28;20766;-76
2021/06/18 05:28:25;;;;;;;13.10;11.67;;;25.60;97.70;;;;;;5037624;28;21028;-76
2021/06/18 05:30:51;;;;;;;13.83;12.57;;;25.60;97.50;;;;;;5044104;28;20593;-76
2021/06/18 05:33:17;;;;;;;19.13;11.77;;;25.60;97.90;;;;;;5039869;28;20306;-76
2021/06/18 05:35:44;;;;;;;15.10;12.60;;;25.60;98.10;;;;;;5034124;28;20298;-76
2021/06/18 05:38:11;;;;;;;14.10;12.70;;;25.60;98.20;;;;;;5030661;28;20215;-76
2021/06/18 05:40:46;;;;;;;13.00;11.70;;;25.60;98.10;;;;;;5018702;28;20460;-76
2021/06/18 05:43:12;;;;;;;12.70;11.50;;;25.70;98.00;;;;;;5051909;28;20475;-76
2021/06/18 05:45:38;;;;;;;14.50;12.37;;;25.70;98.30;;;;;;5052924;28;20449;-76
2021/06/18 05:48:05;;;;;;;13.63;12.43;;;25.70;98.10;;;;;;5034264;28;20276;-74
2021/06/18 05:50:31;;;;;;;12.40;11.30;;;25.80;97.80;;;;;;5035227;28;20450;-76
2021/06/18 05:52:57;;;;;;;12.27;11.07;;;25.80;97.60;;;;;;5037119;28;20476;-76
2021/06/18 05:55:23;;;;;;;13.80;12.17;;;25.80;98.00;;;;;;5035564;28;21005;-76
2021/06/18 05:57:50;;;;;;;11.37;10.27;;;25.80;98.10;;;;;;5038306;28;20218;-75
2021/06/18 06:00:16;;;;;;;12.50;11.30;;;25.90;98.00;;;;;;5038774;28;20234;-76
2021/06/18 06:02:42;;;;;;;11.53;10.47;;;25.90;97.80;;;;;;5040313;28;20448;-78
2021/06/18 06:05:09;;;;;;;11.80;10.40;;;25.90;97.70;;;;;;5025551;28;20440;-78
2021/06/18 06:07:35;;;;;;;12.33;11.17;;;26.00;97.80;;;;;;5047293;28;20345;-74
2021/06/18 06:10:00;;;;;;;12.07;10.87;;;26.10;97.70;;;;;;5035707;28;20532;-77
2021/06/18 06:12:26;;;;;;;11.23;10.17;;;26.10;97.70;;;;;;5030487;28;20223;-76
2021/06/18 06:14:52;;;;;;;12.10;10.93;;;26.20;97.50;;;;;;5056641;28;20223;-77
2021/06/18 06:17:18;;;;;;;11.17;10.27;;;26.30;97.70;;;;;;5027343;28;20246;-78
2021/06/18 06:19:43;;;;;;;11.77;10.77;;;26.30;97.60;;;;;;5021865;28;20569;-76
2021/06/18 06:22:09;;;;;;;11.60;10.50;;;26.40;97.50;;;;;;5064280;28;20694;-76
2021/06/18 06:24:36;;;;;;;11.07;10.07;;;26.40;97.40;;;;;;5035810;28;20608;-76
2021/06/18 06:27:02;;;;;;;12.53;11.13;;;26.50;97.80;;;;;;5053555;28;20218;-76
2021/06/18 06:29:28;;;;;;;13.63;11.90;;;26.50;97.50;;;;;;5052484;28;20481;-76
2021/06/18 06:31:54;;;;;;;13.47;12.23;;;26.60;97.80;;;;;;5037663;28;20519;-76
2021/06/18 06:34:20;;;;;;;14.47;13.10;;;26.70;98.00;;;;;;5037997;28;20223;-76
2021/06/18 06:36:46;;;;;;;13.20;12.00;;;26.90;98.50;;;;;;5038246;28;20210;-75
2021/06/18 06:39:11;;;;;;;12.73;11.60;;;26.90;98.30;;;;;;5015980;28;20216;-76
2021/06/18 06:41:37;;;;;;;13.77;12.20;;;27.00;98.20;;;;;;5033854;28;20219;-77
2021/06/18 06:44:04;;;;;;;14.03;12.30;;;27.10;98.30;;;;;;5017925;28;20223;-76
2021/06/18 06:46:30;;;;;;;13.00;11.70;;;27.20;98.50;;;;;;5063594;28;20219;-75
2021/06/18 06:48:55;;;;;;;15.17;13.27;;;27.40;98.70;;;;;;5050201;28;20250;-75
2021/06/18 06:51:21;;;;;;;14.20;13.00;;;27.40;98.40;;;;;;5053832;28;20580;-75
2021/06/18 06:53:51;;;;;;;13.67;12.47;;;27.50;98.40;;;;;;5034121;28;20226;-75
2021/06/18 06:56:17;;;;;;;14.27;12.83;;;27.60;98.30;;;;;;5053990;28;20246;-75
2021/06/18 06:58:42;;;;;;;12.53;11.43;;;27.70;98.20;;;;;;5020458;28;20485;-75
2021/06/18 07:01:12;;;;;;;12.90;11.70;;;27.80;98.20;;;;;;5037402;28;20660;-75
2021/06/18 07:03:38;;;;;;;13.70;12.30;;;27.80;98.10;;;;;;5031481;28;20218;-75
2021/06/18 07:06:05;;;;;;;13.40;12.03;;;27.90;97.80;;;;;;5037072;28;20810;-75
2021/06/18 07:08:31;;;;;;;12.27;11.17;;;27.90;97.60;;;;;;5037291;28;20299;-75
2021/06/18 07:10:57;;;;;;;12.40;11.20;;;28.00;97.50;;;;;;5036836;28;20223;-75
2021/06/18 07:13:38;;;;;;;11.97;10.90;;;28.10;97.50;;;;;;5032766;28;20226;-75
2021/06/18 07:16:04;;;;;;;11.20;10.03;;;28.10;96.40;;;;;;5016577;28;20211;-75
2021/06/18 07:18:32;;;;;;;11.07;10.10;;;28.10;96.20;;;;;;5049180;28;20794;-75
2021/06/18 07:20:57;;;;;;;12.30;9.57;;;28.10;96.00;;;;;;5036873;28;20250;-75
2021/06/18 07:23:23;;;;;;;8.90;8.00;;;28.10;95.40;;;;;;5036739;28;20249;-75
2021/06/18 07:25:49;;;;;;;9.00;8.13;;;28.10;95.60;;;;;;5044112;28;20229;-76
2021/06/18 07:28:15;;;;;;;8.33;7.63;;;28.10;95.80;;;;;;5050966;28;20218;-76
2021/06/18 07:30:41;;;;;;;9.53;8.73;;;28.20;95.80;;;;;;5052330;28;20211;-75
2021/06/18 07:33:07;;;;;;;11.00;10.10;;;28.40;96.10;;;;;;5051743;28;20610;-75
2021/06/18 07:35:34;;;;;;;9.80;8.80;;;28.50;96.00;;;;;;5069492;28;20210;-75
2021/06/18 07:38:00;;;;;;;9.38;8.45;;;28.60;95.70;;;;;;5051158;28;20225;-76
2021/06/18 07:40:26;;;;;;;8.35;7.65;;;28.60;95.00;;;;;;5028336;28;20207;-76
2021/06/18 07:42:52;;;;;;;9.57;8.20;;;28.70;95.10;;;;;;5050645;28;20264;-76
2021/06/18 07:45:17;;;;;;;9.73;8.50;;;28.70;94.60;;;;;;5056378;28;20242;-76
2021/06/18 07:47:43;;;;;;;9.20;7.82;;;28.80;94.70;;;;;;5029775;28;20707;-76
2021/06/18 07:50:12;;;;;;;8.60;7.18;;;28.90;94.60;;;;;;5034334;28;20283;-76
2021/06/18 07:52:38;;;;;;;9.00;7.95;;;29.10;94.60;;;;;;5017859;28;20283;-76
2021/06/18 07:55:07;;;;;;;9.02;8.00;;;29.20;94.40;;;;;;5018716;28;20633;-76
2021/06/18 07:57:32;;;;;;;8.50;7.32;;;29.30;94.30;;;;;;5015562;28;20222;-76
2021/06/18 07:59:58;;;;;;;8.65;6.97;;;29.40;94.00;;;;;;4999632;28;20219;-75
2021/06/18 08:02:24;;;;;;;11.55;7.85;;;29.50;93.90;;;;;;5045895;28;20206;-76
2021/06/18 08:04:53;;;;;;;7.40;6.75;;;29.60;93.90;;;;;;5031223;28;20223;-76
2021/06/18 08:07:19;;;;;;;7.85;7.15;;;29.70;93.90;;;;;;5029378;28;20511;-76
2021/06/18 08:09:45;;;;;;;9.57;8.75;;;29.80;93.30;;;;;;5060318;28;20218;-76
2021/06/18 08:12:11;;;;;;;8.93;8.23;;;29.80;93.30;;;;;;5012383;28;20219;-76
2021/06/18 08:14:37;;;;;;;8.55;7.68;;;29.80;93.20;;;;;;5049190;28;20234;-76
2021/06/18 08:17:03;;;;;;;8.35;7.65;;;29.90;93.40;;;;;;5031664;28;20215;-76
2021/06/18 08:19:29;;;;;;;8.88;8.10;;;30.10;93.40;;;;;;5032817;28;20238;-76
2021/06/18 08:21:54;;;;;;;7.75;7.03;;;30.20;92.80;;;;;;5032824;28;20226;-76
2021/06/18 08:24:20;;;;;;;7.50;6.75;;;30.30;92.90;;;;;;5037380;28;20256;-76
2021/06/18 08:26:46;;;;;;;6.82;6.15;;;30.30;92.10;;;;;;5034331;28;20231;-77
2021/06/18 08:29:11;;;;;;;9.65;7.22;;;30.30;91.70;;;;;;5044545;28;20223;-76
2021/06/18 08:31:37;;;;;;;7.15;6.50;;;30.40;91.00;;;;;;5032835;28;20237;-76
2021/06/18 08:34:03;;;;;;;7.28;6.68;;;30.40;91.50;;;;;;5031728;28;20218;-76
2021/06/18 08:36:29;;;;;;;7.93;7.22;;;30.50;91.70;;;;;;5049429;28;20763;-78
2021/06/18 08:38:55;;;;;;;8.68;7.95;;;30.70;92.00;;;;;;5031561;28;20241;-76
2021/06/18 08:41:21;;;;;;;8.57;7.68;;;30.90;92.10;;;;;;5032657;28;20242;-77
2021/06/18 08:43:49;;;;;;;8.63;7.80;;;31.00;91.90;;;;;;5049114;28;20249;-76
2021/06/18 08:46:15;;;;;;;9.00;8.20;;;31.20;91.90;;;;;;5032009;28;20640;-76
2021/06/18 08:48:40;;;;;;;10.18;8.05;;;31.30;91.90;;;;;;5032566;28;20678;-76
2021/06/18 08:51:06;;;;;;;10.60;8.82;;;31.40;91.80;;;;;;5032449;28;20226;-76
2021/06/18 08:53:35;;;;;;;10.57;9.35;;;31.40;91.70;;;;;;5024091;28;20227;-76
2021/06/18 08:56:03;;;;;;;9.90;8.90;;;31.40;91.80;;;;;;5044595;28;20219;-76
2021/06/18 08:58:29;;;;;;;10.18;9.25;;;31.40;91.70;;;;;;5025067;28;20211;-77
2021/06/18 09:00:55;;;;;;;9.40;8.57;;;31.50;91.80;;;;;;5031802;28;20210;-76
2021/06/18 09:03:45;;;;;;;10.82;9.82;;;31.60;91.80;;;;;;5032333;28;20287;-76
2021/06/18 09:06:28;;;;;;;9.93;9.02;;;31.60;91.60;;;;;;5052793;28;20280;-76
2021/06/18 09:09:10;;;;;;;9.60;8.82;;;31.60;91.70;;;;;;5063222;28;20223;-76
2021/06/18 09:11:51;;;;;;;10.80;9.75;;;31.70;91.70;;;;;;5056570;28;20294;-76
2021/06/18 09:14:24;;;;;;;11.32;10.13;;;31.70;91.50;;;;;;5063902;28;20218;-75
2021/06/18 09:17:16;;;;;;;15.00;9.40;;;31.70;91.50;;;;;;5054955;28;20313;-76
2021/06/18 09:19:52;;;;;;;9.70;8.88;;;31.70;91.50;;;;;;5062141;28;20214;-76
2021/06/18 09:22:22;;;;;;;10.43;9.55;;;31.70;91.30;;;;;;5045739;28;20221;-76
2021/06/18 09:25:06;;;;;;;10.68;9.77;;;31.80;91.30;;;;;;5033603;28;20222;-76
2021/06/18 09:27:52;;;;;;;9.82;9.05;;;31.80;91.10;;;;;;5046522;28;20236;-76
2021/06/18 09:30:31;;;;;;;10.15;9.25;;;31.90;91.20;;;;;;5034586;28;20686;-76
2021/06/18 09:33:01;;;;;;;11.13;10.02;;;32.00;91.20;;;;;;5033816;28;20219;-76
2021/06/18 09:35:28;;;;;;;10.75;9.85;;;32.10;91.20;;;;;;5052119;28;20709;-76
2021/06/18 09:37:56;;;;;;;11.25;9.82;;;32.20;91.10;;;;;;5047300;28;20222;-75
2021/06/18 09:40:23;;;;;;;11.18;10.27;;;32.30;90.90;;;;;;5038177;28;20302;-76
2021/06/18 09:43:10;;;;;;;9.45;8.65;;;32.30;91.00;;;;;;5037889;28;20248;-75
2021/06/18 09:45:38;;;;;;;9.70;9.00;;;32.50;91.00;;;;;;5070601;28;20293;-76
2021/06/18 09:48:14;;;;;;;10.85;9.77;;;32.60;90.80;;;;;;5034509;28;20334;-74
2021/06/18 09:50:42;;;;;;;10.70;9.70;;;32.70;90.70;;;;;;5035546;28;20290;-76
2021/06/18 09:53:12;;;;;;;11.10;10.10;;;32.70;90.50;;;;;;5033879;28;20207;-76
2021/06/18 09:55:39;;;;;;;11.43;9.73;;;32.70;90.60;;;;;;5070489;28;20344;-76
2021/06/18 09:58:05;;;;;;;11.38;10.48;;;32.70;90.50;;;;;;5016667;28;20219;-76
2021/06/18 10:00:31;;;;;;;10.90;10.00;;;32.70;90.50;;;;;;5017274;28;20212;-75
2021/06/18 10:02:57;;;;;;;11.30;10.30;;;32.80;90.50;;;;;;5017082;28;20238;-76
2021/06/18 10:05:36;;;;;;;10.52;9.57;;;32.80;90.40;;;;;;5035349;28;20223;-76
2021/06/18 10:08:03;;;;;;;10.77;9.68;;;32.80;90.50;;;;;;5017641;28;20221;-76
2021/06/18 10:10:35;;;;;;;11.15;10.25;;;32.80;90.50;;;;;;5039729;28;20203;-77
2021/06/18 10:13:02;;;;;;;11.02;9.98;;;32.80;90.40;;;;;;5039612;28;20211;-76
2021/06/18 10:15:31;;;;;;;10.77;9.95;;;32.90;90.40;;;;;;5027477;28;20218;-76
2021/06/18 10:17:58;;;;;;;11.73;9.20;;;32.90;90.10;;;;;;5038307;28;20231;-76
2021/06/18 10:20:26;;;;;;;9.40;8.60;;;32.90;90.10;;;;;;5054290;28;20297;-75
2021/06/18 10:23:00;;;;;;;10.23;9.32;;;32.90;90.10;;;;;;5035560;28;20219;-76
2021/06/18 10:25:50;;;;;;;10.45;9.50;;;33.00;90.00;;;;;;5034939;28;20252;-76
2021/06/18 10:28:22;;;;;;;10.35;9.45;;;32.90;89.90;;;;;;5048423;28;20305;-75
2021/06/18 10:30:55;;;;;;;10.43;9.52;;;33.00;89.90;;;;;;5046187;28;20211;-76
2021/06/18 10:33:27;;;;;;;9.48;8.68;;;33.10;89.30;;;;;;5037653;28;20218;-76
2021/06/18 10:36:22;;;;;;;17.10;11.02;;;33.20;88.60;;;;;;5047794;28;20302;-76
2021/06/18 10:39:05;;;;;;;12.30;11.18;;;33.30;89.10;;;;;;5052247;28;20241;-76
2021/06/18 10:41:31;;;;;;;11.90;10.80;;;33.50;89.40;;;;;;5051233;28;20218;-76
2021/06/18 10:43:58;;;;;;;13.00;10.80;;;33.50;89.50;;;;;;5017954;28;20218;-76
2021/06/18 10:46:36;;;;;;;11.25;10.38;;;33.60;89.40;;;;;;5034499;28;20226;-77
2021/06/18 10:49:02;;;;;;;11.90;10.75;;;33.60;89.40;;;;;;5034600;28;20222;-76
2021/06/18 10:51:32;;;;;;;12.27;11.18;;;33.60;89.20;;;;;;5051025;28;20235;-76
2021/06/18 10:54:04;;;;;;;13.05;11.00;;;33.70;89.10;;;;;;5050096;28;20280;-76
2021/06/18 10:56:45;;;;;;;12.10;10.95;;;33.70;88.40;;;;;;5052270;28;20222;-76
2021/06/18 10:59:26;;;;;;;10.73;9.82;;;33.70;88.60;;;;;;5050737;28;20218;-77
2021/06/18 11:01:51;;;;;;;10.85;10.05;;;33.70;87.70;;;;;;5049934;28;20249;-76
2021/06/18 11:04:57;;;;;;;11.38;10.48;;;33.70;87.40;;;;;;5017990;28;20223;-76
2021/06/18 11:07:27;;;;;;;12.20;11.20;;;33.70;87.50;;;;;;5062400;28;20222;-76
2021/06/18 11:09:55;;;;;;;13.02;12.02;;;33.70;87.20;;;;;;5052779;28;20302;-76
2021/06/18 11:12:27;;;;;;;11.70;10.80;;;33.70;87.10;;;;;;5044975;28;20234;-76
2021/06/18 11:15:15;;;;;;;12.18;11.10;;;33.70;87.00;;;;;;5041767;28;20229;-76
2021/06/18 11:17:53;;;;;;;12.48;11.20;;;33.70;85.80;;;;;;5047780;28;20238;-76
2021/06/18 11:20:49;;;;;;;12.23;11.23;;;33.80;85.70;;;;;;5008558;28;20245;-77
2021/06/18 11:23:17;;;;;;;13.30;12.00;;;33.80;85.90;;;;;;5038347;28;20215;-76
2021/06/18 11:25:50;;;;;;;12.98;11.63;;;33.80;85.60;;;;;;5044611;28;20234;-76
2021/06/18 11:28:19;;;;;;;11.95;10.77;;;33.80;85.60;;;;;;5047501;28;20222;-76
2021/06/18 11:30:55;;;;;;;12.68;11.68;;;33.80;85.40;;;;;;5062336;28;20687;-76
2021/06/18 11:33:39;;;;;;;13.10;11.90;;;33.90;85.20;;;;;;5049739;28;20264;-76
2021/06/18 11:36:17;;;;;;;13.40;12.30;;;33.90;85.50;;;;;;5032895;28;20219;-76
2021/06/18 11:39:06;;;;;;;12.27;11.27;;;33.90;85.90;;;;;;5029226;28;20215;-76
2021/06/18 11:41:44;;;;;;;13.15;12.15;;;33.90;85.30;;;;;;5046192;28;20222;-76
2021/06/18 11:44:12;;;;;;;12.93;11.85;;;34.00;85.40;;;;;;5045787;28;20222;-77
2021/06/18 11:46:39;;;;;;;12.68;11.50;;;34.00;85.00;;;;;;5062010;28;20729;-76
2021/06/18 11:49:18;;;;;;;13.57;12.30;;;34.00;84.90;;;;;;5043407;28;20658;-75
2021/06/18 11:51:44;;;;;;;11.38;10.48;;;34.10;83.10;;;;;;5034260;28;20226;-76
2021/06/18 11:54:34;;;;;;;11.70;10.77;;;34.10;83.40;;;;;;5029848;28;20298;-76
2021/06/18 11:57:10;;;;;;;11.15;10.15;;;34.10;83.40;;;;;;5034026;28;20222;-76
2021/06/18 11:59:39;;;;;;;11.95;11.05;;;34.10;82.20;;;;;;5059308;28;20222;-76
2021/06/18 12:02:15;;;;;;;11.98;11.07;;;34.10;82.30;;;;;;5032347;28;20223;-76
2021/06/18 12:04:41;;;;;;;11.90;10.82;;;34.00;82.10;;;;;;5049673;28;20242;-76
2021/06/18 12:07:07;;;;;;;11.27;10.27;;;34.10;82.20;;;;;;5029989;28;20668;-75
2021/06/18 12:09:41;;;;;;;11.40;10.60;;;34.10;81.60;;;;;;5045445;28;20218;-76
2021/06/18 12:12:08;;;;;;;12.07;11.07;;;34.10;81.80;;;;;;5041917;28;20774;-75
2021/06/18 12:14:44;;;;;;;12.45;11.27;;;34.00;81.50;;;;;;5037733;28;20333;-76
2021/06/18 12:17:10;;;;;;;11.80;10.80;;;34.10;81.80;;;;;;5029633;28;20217;-75
2021/06/18 12:19:48;;;;;;;11.73;10.73;;;34.10;82.20;;;;;;5044114;28;20593;-76
2021/06/18 12:22:19;;;;;;;11.73;10.70;;;34.20;82.10;;;;;;5060474;28;20712;-77
2021/06/18 12:25:03;;;;;;;12.75;11.73;;;34.40;81.90;;;;;;5060447;28;20677;-76
2021/06/18 12:27:33;;;;;;;13.10;11.65;;;34.40;81.80;;;;;;5058115;28;20392;-76
2021/06/18 12:30:03;;;;;;;13.75;12.57;;;34.50;81.40;;;;;;5041502;28;20225;-76
2021/06/18 12:32:34;;;;;;;13.32;12.40;;;34.60;82.00;;;;;;5030372;28;20761;-76
2021/06/18 12:35:03;;;;;;;12.48;11.48;;;34.60;81.30;;;;;;5034409;28;20675;-75
2021/06/18 12:37:35;;;;;;;12.82;11.80;;;34.50;81.30;;;;;;5030355;28;20215;-76
2021/06/18 12:40:06;;;;;;;11.90;11.07;;;34.50;81.10;;;;;;5046891;28;20309;-76
2021/06/18 12:42:47;;;;;;;12.77;11.70;;;34.50;81.50;;;;;;5035961;28;20715;-76